sensor_id;sensor_type;location;lat;lon;timestamp;temperature;humidity
4079;DHT22;2054;47.858;11.156;2023-07-31T02:46:09;18.00;99.90
4079;DHT22;2054;47.858;11.156;2023-07-31T02:48:36;18.10;99.90
4079;DHT22;2054;47.858;11.156;2023-07-31T02:51:03;18.00;99.90
4079;DHT22;2054;47.858;11.156;2023-07-31T02:53:30;17.90;99.90
4079;DHT22;2054;47.858;11.156;2023-07-31T02:55:57;17.90;99.90
4079;DHT22;2054;47.858;11.156;2023-07-31T02:58:23;17.90;99.90
4079;DHT22;2054;47.858;11.156;2023-07-31T03:00:51;17.90;99.90
4079;DHT22;2054;47.858;11.156;2023-07-31T03:03:19;17.90;99.90
4079;DHT22;2054;47.858;11.156;2023-07-31T03:05:47;17.80;99.90
4079;DHT22;2054;47.858;11.156;2023-07-31T03:08:13;17.80;99.90
4079;DHT22;2054;47.858;11.156;2023-07-31T03:10:43;17.70;99.90
4079;DHT22;2054;47.858;11.156;2023-07-31T03:13:10;17.60;99.90
4079;DHT22;2054;47.858;11.156;2023-07-31T03:15:38;17.50;99.90
4079;DHT22;2054;47.858;11.156;2023-07-31T03:18:04;17.30;99.90
4079;DHT22;2054;47.858;11.156;2023-07-31T03:20:35;17.30;99.90
4079;DHT22;2054;47.858;11.156;2023-07-31T03:23:02;17.20;99.90
4079;DHT22;2054;47.858;11.156;2023-07-31T03:25:30;17.10;99.90
4079;DHT22;2054;47.858;11.156;2023-07-31T03:27:57;17.10;99.90
4079;DHT22;2054;47.858;11.156;2023-07-31T03:30:24;16.90;99.90
4079;DHT22;2054;47.858;11.156;2023-07-31T03:32:57;16.90;99.90
4079;DHT22;2054;47.858;11.156;2023-07-31T03:35:24;16.80;99.90
4079;DHT22;2054;47.858;11.156;2023-07-31T03:37:53;16.70;99.90
4079;DHT22;2054;47.858;11.156;2023-07-31T03:40:20;16.70;99.90
4079;DHT22;2054;47.858;11.156;2023-07-31T03:42:46;16.60;99.90
4079;DHT22;2054;47.858;11.156;2023-07-31T03:45:13;16.60;99.90
4079;DHT22;2054;47.858;11.156;2023-07-31T03:47:42;16.40;99.90
4079;DHT22;2054;47.858;11.156;2023-07-31T03:50:09;16.40;99.90
4079;DHT22;2054;47.858;11.156;2023-07-31T03:52:36;16.40;99.90
4079;DHT22;2054;47.858;11.156;2023-07-31T03:55:05;16.40;99.90
4079;DHT22;2054;47.858;11.156;2023-07-31T03:57:32;16.40;99.90
4079;DHT22;2054;47.858;11.156;2023-07-31T03:59:59;16.40;99.90
4079;DHT22;2054;47.858;11.156;2023-07-31T04:02:26;16.40;99.90
4079;DHT22;2054;47.858;11.156;2023-07-31T04:04:53;16.30;99.90
4079;DHT22;2054;47.858;11.156;2023-07-31T04:07:20;16.20;99.90
4079;DHT22;2054;47.858;11.156;2023-07-31T04:09:47;16.20;99.90
4079;DHT22;2054;47.858;11.156;2023-07-31T04:12:16;16.10;99.90
4079;DHT22;2054;47.858;11.156;2023-07-31T04:14:42;16.10;99.90
4079;DHT22;2054;47.858;11.156;2023-07-31T04:17:10;16.10;99.90
4079;DHT22;2054;47.858;11.156;2023-07-31T04:19:37;16.10;99.90
4079;DHT22;2054;47.858;11.156;2023-07-31T04:22:04;16.10;99.90
4079;DHT22;2054;47.858;11.156;2023-07-31T04:24:31;16.20;99.90
4079;DHT22;2054;47.858;11.156;2023-07-31T04:26:57;16.30;99.90
4079;DHT22;2054;47.858;11.156;2023-07-31T04:29:26;16.30;99.90
4079;DHT22;2054;47.858;11.156;2023-07-31T04:31:52;16.30;99.90
4079;DHT22;2054;47.858;11.156;2023-07-31T04:34:19;16.40;99.90
4079;DHT22;2054;47.858;11.156;2023-07-31T04:36:46;16.50;99.90
4079;DHT22;2054;47.858;11.156;2023-07-31T04:39:13;16.60;99.90
4079;DHT22;2054;47.858;11.156;2023-07-31T04:41:40;16.70;99.90
4079;DHT22;2054;47.858;11.156;2023-07-31T04:44:07;16.70;99.90
4079;DHT22;2054;47.858;11.156;2023-07-31T04:46:38;16.80;99.90
4079;DHT22;2054;47.858;11.156;2023-07-31T04:49:05;16.90;99.90
4079;DHT22;2054;47.858;11.156;2023-07-31T04:51:32;16.90;99.90
4079;DHT22;2054;47.858;11.156;2023-07-31T04:53:59;16.90;99.90
4079;DHT22;2054;47.858;11.156;2023-07-31T04:56:26;16.90;99.90
4079;DHT22;2054;47.858;11.156;2023-07-31T04:58:52;16.90;99.90
4079;DHT22;2054;47.858;11.156;2023-07-31T05:01:20;16.90;99.90
4079;DHT22;2054;47.858;11.156;2023-07-31T05:03:48;17.00;99.90
4079;DHT22;2054;47.858;11.156;2023-07-31T05:06:15;17.10;99.90
4079;DHT22;2054;47.858;11.156;2023-07-31T05:08:42;17.10;99.90
4079;DHT22;2054;47.858;11.156;2023-07-31T05:11:09;17.20;99.90
4079;DHT22;2054;47.858;11.156;2023-07-31T05:13:37;17.30;99.90
4079;DHT22;2054;47.858;11.156;2023-07-31T05:16:04;17.40;99.90
4079;DHT22;2054;47.858;11.156;2023-07-31T05:18:31;17.40;99.90
4079;DHT22;2054;47.858;11.156;2023-07-31T05:21:00;17.60;99.90
4079;DHT22;2054;47.858;11.156;2023-07-31T05:23:28;17.60;99.90
4079;DHT22;2054;47.858;11.156;2023-07-31T05:25:54;17.60;99.90
4079;DHT22;2054;47.858;11.156;2023-07-31T05:28:21;17.70;99.90
4079;DHT22;2054;47.858;11.156;2023-07-31T05:30:48;17.70;99.90
4079;DHT22;2054;47.858;11.156;2023-07-31T05:33:15;17.70;99.90
4079;DHT22;2054;47.858;11.156;2023-07-31T05:35:42;17.80;99.90
4079;DHT22;2054;47.858;11.156;2023-07-31T05:38:11;17.80;99.90
4079;DHT22;2054;47.858;11.156;2023-07-31T05:40:38;17.80;99.90
4079;DHT22;2054;47.858;11.156;2023-07-31T05:43:05;17.90;99.90
4079;DHT22;2054;47.858;11.156;2023-07-31T05:45:33;18.00;99.90
4079;DHT22;2054;47.858;11.156;2023-07-31T05:48:00;18.10;99.90
4079;DHT22;2054;47.858;11.156;2023-07-31T05:50:27;18.20;99.90
4079;DHT22;2054;47.858;11.156;2023-07-31T05:52:54;18.10;99.90
4079;DHT22;2054;47.858;11.156;2023-07-31T05:55:22;18.10;99.90
4079;DHT22;2054;47.858;11.156;2023-07-31T05:57:52;18.20;99.90
4079;DHT22;2054;47.858;11.156;2023-07-31T06:00:19;18.40;99.90
4079;DHT22;2054;47.858;11.156;2023-07-31T06:02:46;18.50;99.90
4079;DHT22;2054;47.858;11.156;2023-07-31T06:05:13;18.50;99.90
4079;DHT22;2054;47.858;11.156;2023-07-31T06:07:40;18.50;99.90
4079;DHT22;2054;47.858;11.156;2023-07-31T06:10:07;18.60;99.90
4079;DHT22;2054;47.858;11.156;2023-07-31T06:12:36;18.70;99.90
4079;DHT22;2054;47.858;11.156;2023-07-31T06:15:03;18.90;99.90
4079;DHT22;2054;47.858;11.156;2023-07-31T06:17:31;19.00;99.90
4079;DHT22;2054;47.858;11.156;2023-07-31T06:20:01;19.00;99.90
4079;DHT22;2054;47.858;11.156;2023-07-31T06:22:30;19.10;99.90
4079;DHT22;2054;47.858;11.156;2023-07-31T06:24:57;19.30;99.90
4079;DHT22;2054;47.858;11.156;2023-07-31T06:27:25;19.10;99.90
4079;DHT22;2054;47.858;11.156;2023-07-31T06:29:54;19.20;99.90
4079;DHT22;2054;47.858;11.156;2023-07-31T06:32:21;19.30;99.90
4079;DHT22;2054;47.858;11.156;2023-07-31T06:34:49;19.50;99.90
4079;DHT22;2054;47.858;11.156;2023-07-31T06:37:16;19.70;99.90
4079;DHT22;2054;47.858;11.156;2023-07-31T06:39:43;19.90;99.90
4079;DHT22;2054;47.858;11.156;2023-07-31T06:42:10;20.00;99.90
4079;DHT22;2054;47.858;11.156;2023-07-31T06:44:37;20.20;99.90
4079;DHT22;2054;47.858;11.156;2023-07-31T06:47:05;20.20;99.90
4079;DHT22;2054;47.858;11.156;2023-07-31T06:49:34;20.30;99.90
4079;DHT22;2054;47.858;11.156;2023-07-31T06:52:01;20.50;99.90
4079;DHT22;2054;47.858;11.156;2023-07-31T06:54:28;20.40;99.90
4079;DHT22;2054;47.858;11.156;2023-07-31T06:56:55;20.20;99.90
4079;DHT22;2054;47.858;11.156;2023-07-31T06:59:22;20.10;99.90
4079;DHT22;2054;47.858;11.156;2023-07-31T07:01:49;20.20;99.90
4079;DHT22;2054;47.858;11.156;2023-07-31T07:04:17;20.20;99.90
4079;DHT22;2054;47.858;11.156;2023-07-31T07:06:44;20.20;99.90
4079;DHT22;2054;47.858;11.156;2023-07-31T07:09:11;20.30;99.90
4079;DHT22;2054;47.858;11.156;2023-07-31T07:11:38;20.50;99.90
4079;DHT22;2054;47.858;11.156;2023-07-31T07:14:04;20.30;99.90
4079;DHT22;2054;47.858;11.156;2023-07-31T07:16:31;20.20;99.90
4079;DHT22;2054;47.858;11.156;2023-07-31T07:18:58;20.20;99.90
4079;DHT22;2054;47.858;11.156;2023-07-31T07:21:26;20.20;99.90
4079;DHT22;2054;47.858;11.156;2023-07-31T07:23:53;20.20;99.90
4079;DHT22;2054;47.858;11.156;2023-07-31T07:26:20;20.20;99.90
4079;DHT22;2054;47.858;11.156;2023-07-31T07:28:48;20.30;99.90
4079;DHT22;2054;47.858;11.156;2023-07-31T07:31:15;20.40;99.90
4079;DHT22;2054;47.858;11.156;2023-07-31T07:33:41;20.40;99.90
4079;DHT22;2054;47.858;11.156;2023-07-31T07:36:08;20.40;99.90
4079;DHT22;2054;47.858;11.156;2023-07-31T07:38:37;20.50;99.90
4079;DHT22;2054;47.858;11.156;2023-07-31T07:41:04;20.40;99.90
4079;DHT22;2054;47.858;11.156;2023-07-31T07:43:31;20.30;99.90
4079;DHT22;2054;47.858;11.156;2023-07-31T07:45:58;20.40;99.90
4079;DHT22;2054;47.858;11.156;2023-07-31T07:48:25;20.50;99.90
4079;DHT22;2054;47.858;11.156;2023-07-31T07:50:52;20.40;99.90
4079;DHT22;2054;47.858;11.156;2023-07-31T07:53:19;20.10;99.90
4079;DHT22;2054;47.858;11.156;2023-07-31T07:55:47;20.30;99.90
4079;DHT22;2054;47.858;11.156;2023-07-31T07:58:14;20.60;99.90
4079;DHT22;2054;47.858;11.156;2023-07-31T08:00:41;20.80;99.90
4079;DHT22;2054;47.858;11.156;2023-07-31T08:03:07;21.00;99.90
4079;DHT22;2054;47.858;11.156;2023-07-31T08:05:35;21.10;99.90
4079;DHT22;2054;47.858;11.156;2023-07-31T08:08:02;21.30;99.90
4079;DHT22;2054;47.858;11.156;2023-07-31T08:10:29;21.20;99.90
4079;DHT22;2054;47.858;11.156;2023-07-31T08:12:59;21.30;99.90
4079;DHT22;2054;47.858;11.156;2023-07-31T08:15:26;21.60;99.90
4079;DHT22;2054;47.858;11.156;2023-07-31T08:17:53;21.70;99.90
4079;DHT22;2054;47.858;11.156;2023-07-31T08:20:20;21.90;99.90
4079;DHT22;2054;47.858;11.156;2023-07-31T08:22:47;22.10;99.90
4079;DHT22;2054;47.858;11.156;2023-07-31T08:25:14;22.30;99.90
4079;DHT22;2054;47.858;11.156;2023-07-31T08:27:43;22.50;99.90
4079;DHT22;2054;47.858;11.156;2023-07-31T08:30:12;22.40;99.90
4079;DHT22;2054;47.858;11.156;2023-07-31T08:32:39;22.70;99.90
4079;DHT22;2054;47.858;11.156;2023-07-31T08:35:06;22.70;99.90
4079;DHT22;2054;47.858;11.156;2023-07-31T08:37:33;22.60;99.90
4079;DHT22;2054;47.858;11.156;2023-07-31T08:40:00;22.60;99.90
4079;DHT22;2054;47.858;11.156;2023-07-31T08:42:27;22.60;99.90
4079;DHT22;2054;47.858;11.156;2023-07-31T08:44:55;22.10;99.90
4079;DHT22;2054;47.858;11.156;2023-07-31T08:47:25;21.50;99.90
4079;DHT22;2054;47.858;11.156;2023-07-31T08:49:53;21.80;99.90
4079;DHT22;2054;47.858;11.156;2023-07-31T08:52:21;21.80;99.90
4079;DHT22;2054;47.858;11.156;2023-07-31T08:54:49;22.00;99.90
4079;DHT22;2054;47.858;11.156;2023-07-31T08:57:16;22.30;99.90
4079;DHT22;2054;47.858;11.156;2023-07-31T08:59:44;22.40;99.90
4079;DHT22;2054;47.858;11.156;2023-07-31T09:02:12;22.10;99.90
4079;DHT22;2054;47.858;11.156;2023-07-31T09:04:41;22.20;99.90
4079;DHT22;2054;47.858;11.156;2023-07-31T09:07:09;22.00;99.90
4079;DHT22;2054;47.858;11.156;2023-07-31T09:09:38;21.90;99.90
4079;DHT22;2054;47.858;11.156;2023-07-31T09:12:07;21.90;99.90
4079;DHT22;2054;47.858;11.156;2023-07-31T09:14:34;21.90;99.90
4079;DHT22;2054;47.858;11.156;2023-07-31T09:17:01;21.90;99.90
4079;DHT22;2054;47.858;11.156;2023-07-31T09:19:33;22.20;99.90
4079;DHT22;2054;47.858;11.156;2023-07-31T09:22:04;22.30;99.90
4079;DHT22;2054;47.858;11.156;2023-07-31T09:24:32;22.30;99.90
4079;DHT22;2054;47.858;11.156;2023-07-31T09:27:00;22.00;99.90
4079;DHT22;2054;47.858;11.156;2023-07-31T09:29:28;22.00;99.90
4079;DHT22;2054;47.858;11.156;2023-07-31T09:31:55;22.00;99.90
4079;DHT22;2054;47.858;11.156;2023-07-31T09:34:30;22.10;99.90
4079;DHT22;2054;47.858;11.156;2023-07-31T09:36:59;22.30;99.90
4079;DHT22;2054;47.858;11.156;2023-07-31T09:39:29;22.40;99.90
4079;DHT22;2054;47.858;11.156;2023-07-31T09:41:56;22.50;99.90
4079;DHT22;2054;47.858;11.156;2023-07-31T09:44:37;22.30;99.90
4079;DHT22;2054;47.858;11.156;2023-07-31T09:47:05;22.40;99.90
4079;DHT22;2054;47.858;11.156;2023-07-31T09:49:32;22.60;99.90
4079;DHT22;2054;47.858;11.156;2023-07-31T09:51:59;22.80;99.90
4079;DHT22;2054;47.858;11.156;2023-07-31T09:54:26;22.90;99.90
4079;DHT22;2054;47.858;11.156;2023-07-31T09:56:56;23.00;99.90
4079;DHT22;2054;47.858;11.156;2023-07-31T09:59:25;23.20;99.90
4079;DHT22;2054;47.858;11.156;2023-07-31T10:01:54;23.40;99.90
4079;DHT22;2054;47.858;11.156;2023-07-31T10:04:27;23.30;99.90
4079;DHT22;2054;47.858;11.156;2023-07-31T10:06:55;23.40;99.60
4079;DHT22;2054;47.858;11.156;2023-07-31T10:09:24;23.30;99.90
4079;DHT22;2054;47.858;11.156;2023-07-31T10:11:59;22.80;99.90
4079;DHT22;2054;47.858;11.156;2023-07-31T10:14:27;22.90;99.90
4079;DHT22;2054;47.858;11.156;2023-07-31T10:16:54;23.10;99.80
4079;DHT22;2054;47.858;11.156;2023-07-31T10:19:22;23.10;99.90
4079;DHT22;2054;47.858;11.156;2023-07-31T10:21:50;23.00;99.90
4079;DHT22;2054;47.858;11.156;2023-07-31T10:24:18;22.80;99.90
4079;DHT22;2054;47.858;11.156;2023-07-31T10:26:47;23.00;99.90
4079;DHT22;2054;47.858;11.156;2023-07-31T10:29:17;23.30;99.90
4079;DHT22;2054;47.858;11.156;2023-07-31T10:31:46;23.50;99.10
4079;DHT22;2054;47.858;11.156;2023-07-31T10:34:13;23.30;99.30
4079;DHT22;2054;47.858;11.156;2023-07-31T10:36:40;23.30;99.80
4079;DHT22;2054;47.858;11.156;2023-07-31T10:39:35;23.00;99.90
4079;DHT22;2054;47.858;11.156;2023-07-31T10:42:10;23.10;99.90
4079;DHT22;2054;47.858;11.156;2023-07-31T10:44:43;23.30;98.80
4079;DHT22;2054;47.858;11.156;2023-07-31T10:47:14;23.10;99.70
4079;DHT22;2054;47.858;11.156;2023-07-31T10:49:44;23.20;99.90
4079;DHT22;2054;47.858;11.156;2023-07-31T10:52:13;23.40;99.60
4079;DHT22;2054;47.858;11.156;2023-07-31T10:54:40;23.80;97.90
4079;DHT22;2054;47.858;11.156;2023-07-31T10:57:19;24.40;98.00
4079;DHT22;2054;47.858;11.156;2023-07-31T10:59:48;24.40;98.00
4079;DHT22;2054;47.858;11.156;2023-07-31T11:02:25;24.50;96.50
4079;DHT22;2054;47.858;11.156;2023-07-31T11:05:09;24.10;95.60
4079;DHT22;2054;47.858;11.156;2023-07-31T11:07:49;23.90;95.60
4079;DHT22;2054;47.858;11.156;2023-07-31T11:10:17;23.50;95.80
4079;DHT22;2054;47.858;11.156;2023-07-31T11:12:45;23.20;95.40
4079;DHT22;2054;47.858;11.156;2023-07-31T11:15:14;22.90;96.20
4079;DHT22;2054;47.858;11.156;2023-07-31T11:17:41;23.10;96.30
4079;DHT22;2054;47.858;11.156;2023-07-31T11:20:09;23.30;96.80
4079;DHT22;2054;47.858;11.156;2023-07-31T11:22:36;23.20;96.30
4079;DHT22;2054;47.858;11.156;2023-07-31T11:25:04;23.30;96.30
4079;DHT22;2054;47.858;11.156;2023-07-31T11:27:31;23.40;96.50
4079;DHT22;2054;47.858;11.156;2023-07-31T11:30:00;23.50;96.90
4079;DHT22;2054;47.858;11.156;2023-07-31T11:32:29;23.60;94.80
4079;DHT22;2054;47.858;11.156;2023-07-31T11:34:56;23.80;95.50
4079;DHT22;2054;47.858;11.156;2023-07-31T11:37:23;23.80;94.80
4079;DHT22;2054;47.858;11.156;2023-07-31T11:40:00;23.80;94.80
4079;DHT22;2054;47.858;11.156;2023-07-31T11:42:26;23.80;94.70
4079;DHT22;2054;47.858;11.156;2023-07-31T11:44:53;23.90;93.90
4079;DHT22;2054;47.858;11.156;2023-07-31T11:47:20;24.10;93.70
4079;DHT22;2054;47.858;11.156;2023-07-31T11:49:49;24.20;93.30
4079;DHT22;2054;47.858;11.156;2023-07-31T11:52:16;24.30;93.30
4079;DHT22;2054;47.858;11.156;2023-07-31T11:54:45;24.40;93.20
4079;DHT22;2054;47.858;11.156;2023-07-31T11:57:12;24.30;92.30
4079;DHT22;2054;47.858;11.156;2023-07-31T11:59:40;23.90;91.30
4079;DHT22;2054;47.858;11.156;2023-07-31T12:02:07;24.00;91.10
4079;DHT22;2054;47.858;11.156;2023-07-31T12:04:33;23.90;90.80
4079;DHT22;2054;47.858;11.156;2023-07-31T12:07:02;24.20;91.10
4079;DHT22;2054;47.858;11.156;2023-07-31T12:09:29;24.50;92.20
4079;DHT22;2054;47.858;11.156;2023-07-31T12:11:56;24.80;91.50
4079;DHT22;2054;47.858;11.156;2023-07-31T12:14:24;25.10;91.20
4079;DHT22;2054;47.858;11.156;2023-07-31T12:16:55;25.00;88.30
4079;DHT22;2054;47.858;11.156;2023-07-31T12:19:22;24.90;89.50
4079;DHT22;2054;47.858;11.156;2023-07-31T12:21:51;24.60;86.00
4079;DHT22;2054;47.858;11.156;2023-07-31T12:24:19;24.00;83.80
4079;DHT22;2054;47.858;11.156;2023-07-31T12:26:48;23.80;88.80
4079;DHT22;2054;47.858;11.156;2023-07-31T12:29:15;23.60;87.50
4079;DHT22;2054;47.858;11.156;2023-07-31T12:31:42;23.60;89.70
4079;DHT22;2054;47.858;11.156;2023-07-31T12:34:15;23.80;91.10
4079;DHT22;2054;47.858;11.156;2023-07-31T12:36:44;24.20;87.30
4079;DHT22;2054;47.858;11.156;2023-07-31T12:39:12;24.70;85.00
4079;DHT22;2054;47.858;11.156;2023-07-31T12:41:40;25.40;83.20
4079;DHT22;2054;47.858;11.156;2023-07-31T12:44:07;25.50;81.40
4079;DHT22;2054;47.858;11.156;2023-07-31T12:46:35;25.60;83.40
4079;DHT22;2054;47.858;11.156;2023-07-31T12:49:02;25.50;80.40
4079;DHT22;2054;47.858;11.156;2023-07-31T12:51:29;25.40;81.90
4079;DHT22;2054;47.858;11.156;2023-07-31T12:53:56;25.40;81.40
4079;DHT22;2054;47.858;11.156;2023-07-31T12:56:23;25.30;83.60
4079;DHT22;2054;47.858;11.156;2023-07-31T12:58:51;25.30;81.40
4079;DHT22;2054;47.858;11.156;2023-07-31T13:01:18;25.40;83.60
4079;DHT22;2054;47.858;11.156;2023-07-31T13:03:45;25.80;77.50
4079;DHT22;2054;47.858;11.156;2023-07-31T13:06:12;25.80;77.40
4079;DHT22;2054;47.858;11.156;2023-07-31T13:08:39;25.90;74.10
4079;DHT22;2054;47.858;11.156;2023-07-31T13:11:06;26.10;76.70
4079;DHT22;2054;47.858;11.156;2023-07-31T13:13:33;25.90;76.90
4079;DHT22;2054;47.858;11.156;2023-07-31T13:16:01;25.80;72.90
4079;DHT22;2054;47.858;11.156;2023-07-31T13:18:28;25.50;73.40
4079;DHT22;2054;47.858;11.156;2023-07-31T13:20:55;25.70;74.70
4079;DHT22;2054;47.858;11.156;2023-07-31T13:23:22;26.00;75.30
4079;DHT22;2054;47.858;11.156;2023-07-31T13:28:16;27.00;68.40
4079;DHT22;2054;47.858;11.156;2023-07-31T13:30:43;26.70;69.90
4079;DHT22;2054;47.858;11.156;2023-07-31T13:33:12;27.00;68.70
4079;DHT22;2054;47.858;11.156;2023-07-31T13:35:39;27.10;68.00
4079;DHT22;2054;47.858;11.156;2023-07-31T13:38:06;26.70;71.10
4079;DHT22;2054;47.858;11.156;2023-07-31T13:40:33;26.30;73.80
4079;DHT22;2054;47.858;11.156;2023-07-31T13:43:00;26.70;75.40
4079;DHT22;2054;47.858;11.156;2023-07-31T13:45:27;27.00;74.30
4079;DHT22;2054;47.858;11.156;2023-07-31T13:47:54;26.90;74.80
4079;DHT22;2054;47.858;11.156;2023-07-31T13:50:23;26.70;74.10
4079;DHT22;2054;47.858;11.156;2023-07-31T13:52:50;26.90;74.80
4079;DHT22;2054;47.858;11.156;2023-07-31T13:55:17;26.80;74.10
4079;DHT22;2054;47.858;11.156;2023-07-31T13:57:44;26.40;75.60
4079;DHT22;2054;47.858;11.156;2023-07-31T14:00:13;26.10;78.00
4079;DHT22;2054;47.858;11.156;2023-07-31T14:02:40;25.80;76.70
4079;DHT22;2054;47.858;11.156;2023-07-31T14:05:07;25.80;78.60
4079;DHT22;2054;47.858;11.156;2023-07-31T14:07:36;25.90;80.50
4079;DHT22;2054;47.858;11.156;2023-07-31T14:10:04;26.20;79.60
4079;DHT22;2054;47.858;11.156;2023-07-31T14:12:30;26.90;75.80
4079;DHT22;2054;47.858;11.156;2023-07-31T14:14:58;26.80;75.10
4079;DHT22;2054;47.858;11.156;2023-07-31T14:17:25;26.80;75.60
4079;DHT22;2054;47.858;11.156;2023-07-31T14:19:52;26.50;70.00
4079;DHT22;2054;47.858;11.156;2023-07-31T14:22:27;26.40;71.00
4079;DHT22;2054;47.858;11.156;2023-07-31T14:24:56;26.10;71.00
4079;DHT22;2054;47.858;11.156;2023-07-31T14:27:23;26.40;71.70
4079;DHT22;2054;47.858;11.156;2023-07-31T14:29:50;26.50;71.40
4079;DHT22;2054;47.858;11.156;2023-07-31T14:32:17;26.60;70.90
4079;DHT22;2054;47.858;11.156;2023-07-31T14:34:44;26.70;68.10
4079;DHT22;2054;47.858;11.156;2023-07-31T14:37:11;26.90;67.10
4079;DHT22;2054;47.858;11.156;2023-07-31T14:39:37;27.00;66.60
4079;DHT22;2054;47.858;11.156;2023-07-31T14:42:06;27.00;68.50
4079;DHT22;2054;47.858;11.156;2023-07-31T14:44:33;27.50;68.80
4079;DHT22;2054;47.858;11.156;2023-07-31T14:47:00;28.20;66.00
4079;DHT22;2054;47.858;11.156;2023-07-31T14:49:27;28.60;63.70
4079;DHT22;2054;47.858;11.156;2023-07-31T14:51:54;29.30;63.80
4079;DHT22;2054;47.858;11.156;2023-07-31T14:54:21;30.00;63.30
4079;DHT22;2054;47.858;11.156;2023-07-31T14:56:48;30.90;59.30
4079;DHT22;2054;47.858;11.156;2023-07-31T14:59:17;31.00;58.20
4079;DHT22;2054;47.858;11.156;2023-07-31T15:01:43;30.20;56.20
4079;DHT22;2054;47.858;11.156;2023-07-31T15:04:10;29.60;59.10
4079;DHT22;2054;47.858;11.156;2023-07-31T15:06:37;28.80;59.60
4079;DHT22;2054;47.858;11.156;2023-07-31T15:09:05;33.20;63.90
4079;DHT22;2054;47.858;11.156;2023-07-31T15:11:32;29.20;58.80
4079;DHT22;2054;47.858;11.156;2023-07-31T15:13:59;29.20;60.30
4079;DHT22;2054;47.858;11.156;2023-07-31T15:16:27;27.90;59.40
4079;DHT22;2054;47.858;11.156;2023-07-31T15:18:56;27.00;61.60
4079;DHT22;2054;47.858;11.156;2023-07-31T15:21:24;26.40;64.30
4079;DHT22;2054;47.858;11.156;2023-07-31T15:23:51;26.40;64.10
4079;DHT22;2054;47.858;11.156;2023-07-31T15:26:18;26.50;64.70
4079;DHT22;2054;47.858;11.156;2023-07-31T15:28:49;26.50;64.60
4079;DHT22;2054;47.858;11.156;2023-07-31T15:31:16;26.60;63.80
4079;DHT22;2054;47.858;11.156;2023-07-31T15:33:48;26.30;65.10
4079;DHT22;2054;47.858;11.156;2023-07-31T15:36:14;26.10;65.70
4079;DHT22;2054;47.858;11.156;2023-07-31T15:38:43;25.70;66.40
4079;DHT22;2054;47.858;11.156;2023-07-31T15:41:09;25.50;68.60
4079;DHT22;2054;47.858;11.156;2023-07-31T15:43:37;25.40;68.60
4079;DHT22;2054;47.858;11.156;2023-07-31T15:46:04;25.20;67.70
4079;DHT22;2054;47.858;11.156;2023-07-31T15:48:31;25.00;68.40
4079;DHT22;2054;47.858;11.156;2023-07-31T15:51:00;25.10;70.20
4079;DHT22;2054;47.858;11.156;2023-07-31T15:53:28;25.20;70.00
4079;DHT22;2054;47.858;11.156;2023-07-31T15:55:56;25.20;74.60
4079;DHT22;2054;47.858;11.156;2023-07-31T15:58:23;25.20;71.90
4079;DHT22;2054;47.858;11.156;2023-07-31T16:00:50;25.30;73.50
4079;DHT22;2054;47.858;11.156;2023-07-31T16:03:17;25.30;72.70
4079;DHT22;2054;47.858;11.156;2023-07-31T16:05:45;25.20;70.50
4079;DHT22;2054;47.858;11.156;2023-07-31T16:08:13;24.80;71.60
4079;DHT22;2054;47.858;11.156;2023-07-31T16:10:40;24.60;71.50
4079;DHT22;2054;47.858;11.156;2023-07-31T16:13:07;24.40;73.00
4079;DHT22;2054;47.858;11.156;2023-07-31T16:15:34;24.20;73.20
4079;DHT22;2054;47.858;11.156;2023-07-31T16:18:01;24.30;72.90
4079;DHT22;2054;47.858;11.156;2023-07-31T16:20:28;24.10;73.50
4079;DHT22;2054;47.858;11.156;2023-07-31T16:22:55;24.00;74.70
4079;DHT22;2054;47.858;11.156;2023-07-31T16:25:24;23.70;74.10
4079;DHT22;2054;47.858;11.156;2023-07-31T16:27:51;23.60;75.10
4079;DHT22;2054;47.858;11.156;2023-07-31T16:30:18;23.80;75.90
4079;DHT22;2054;47.858;11.156;2023-07-31T16:32:46;24.00;75.80
4079;DHT22;2054;47.858;11.156;2023-07-31T16:35:15;24.10;77.00
4079;DHT22;2054;47.858;11.156;2023-07-31T16:37:41;24.30;77.90
4079;DHT22;2054;47.858;11.156;2023-07-31T16:40:10;24.40;75.80
4079;DHT22;2054;47.858;11.156;2023-07-31T16:42:38;24.60;76.50
4079;DHT22;2054;47.858;11.156;2023-07-31T16:45:06;24.60;75.60
4079;DHT22;2054;47.858;11.156;2023-07-31T16:47:34;24.30;76.80
4079;DHT22;2054;47.858;11.156;2023-07-31T16:50:01;24.40;77.50
4079;DHT22;2054;47.858;11.156;2023-07-31T16:52:27;24.40;77.20
4079;DHT22;2054;47.858;11.156;2023-07-31T16:54:54;24.30;77.10
4079;DHT22;2054;47.858;11.156;2023-07-31T16:57:21;24.50;76.60
4079;DHT22;2054;47.858;11.156;2023-07-31T16:59:51;24.70;75.40
4079;DHT22;2054;47.858;11.156;2023-07-31T17:02:19;24.80;74.50
4079;DHT22;2054;47.858;11.156;2023-07-31T17:04:47;24.90;75.40
4079;DHT22;2054;47.858;11.156;2023-07-31T17:07:15;25.00;73.80
4079;DHT22;2054;47.858;11.156;2023-07-31T17:09:44;25.30;74.60
4079;DHT22;2054;47.858;11.156;2023-07-31T17:12:11;25.60;73.50
4079;DHT22;2054;47.858;11.156;2023-07-31T17:14:38;25.90;73.50
4079;DHT22;2054;47.858;11.156;2023-07-31T17:17:06;26.10;72.70
4079;DHT22;2054;47.858;11.156;2023-07-31T17:19:33;26.20;74.10
4079;DHT22;2054;47.858;11.156;2023-07-31T17:22:01;26.50;71.50
4079;DHT22;2054;47.858;11.156;2023-07-31T17:24:27;26.30;71.10
4079;DHT22;2054;47.858;11.156;2023-07-31T17:26:54;26.30;71.50
4079;DHT22;2054;47.858;11.156;2023-07-31T17:29:27;25.80;71.90
4079;DHT22;2054;47.858;11.156;2023-07-31T17:31:54;25.90;72.70
4079;DHT22;2054;47.858;11.156;2023-07-31T17:34:23;25.80;74.20
4079;DHT22;2054;47.858;11.156;2023-07-31T17:36:50;25.60;74.40
4079;DHT22;2054;47.858;11.156;2023-07-31T17:39:17;25.10;73.30
4079;DHT22;2054;47.858;11.156;2023-07-31T17:41:44;24.90;75.80
4079;DHT22;2054;47.858;11.156;2023-07-31T17:44:11;24.70;75.90
4079;DHT22;2054;47.858;11.156;2023-07-31T17:46:38;24.70;76.60
4079;DHT22;2054;47.858;11.156;2023-07-31T17:49:05;24.60;76.30
4079;DHT22;2054;47.858;11.156;2023-07-31T17:51:33;24.60;78.20
4079;DHT22;2054;47.858;11.156;2023-07-31T17:54:01;24.60;77.50
4079;DHT22;2054;47.858;11.156;2023-07-31T17:56:31;24.80;77.60
4079;DHT22;2054;47.858;11.156;2023-07-31T17:59:03;24.80;77.20
4079;DHT22;2054;47.858;11.156;2023-07-31T18:01:30;24.80;79.10
4079;DHT22;2054;47.858;11.156;2023-07-31T18:03:57;24.80;79.20
4079;DHT22;2054;47.858;11.156;2023-07-31T18:06:24;24.80;78.40
4079;DHT22;2054;47.858;11.156;2023-07-31T18:08:52;24.70;77.60
4079;DHT22;2054;47.858;11.156;2023-07-31T18:11:20;24.60;77.60
4079;DHT22;2054;47.858;11.156;2023-07-31T18:13:47;24.50;78.30
4079;DHT22;2054;47.858;11.156;2023-07-31T18:16:14;24.40;79.70
4079;DHT22;2054;47.858;11.156;2023-07-31T18:18:41;24.30;78.30
4079;DHT22;2054;47.858;11.156;2023-07-31T18:21:08;24.20;78.90
4079;DHT22;2054;47.858;11.156;2023-07-31T18:23:35;24.10;78.80
4079;DHT22;2054;47.858;11.156;2023-07-31T18:26:03;24.00;78.70
4079;DHT22;2054;47.858;11.156;2023-07-31T18:28:30;23.80;80.80
4079;DHT22;2054;47.858;11.156;2023-07-31T18:30:59;23.80;82.50
4079;DHT22;2054;47.858;11.156;2023-07-31T18:33:26;23.70;80.80
4079;DHT22;2054;47.858;11.156;2023-07-31T18:35:53;23.70;81.50